Time;durP1;ratioP1;P1;durP2;ratioP2;P2;SDS_P1;SDS_P2;PMS_P1;PMS_P2;Temp;Humidity;BMP_temperature;BMP_pressure;BME280_temperature;BME280_humidity;BME280_pressure;Samples;Min_cycle;Max_cycle;Signal;HPM_P1;HPM_P2
2022/05/08 00:01:25;;;;;;;;;;;25.00;43.30;;;;;;5019009;28;19957;-71
2022/05/08 00:03:52;;;;;;;;;;;25.00;43.30;;;;;;5018877;28;20024;-71
2022/05/08 00:06:19;;;;;;;;;;;25.00;43.30;;;;;;5018923;28;19925;-71
2022/05/08 00:08:46;;;;;;;;;;;25.00;43.30;;;;;;5019184;28;19932;-72
2022/05/08 00:11:13;;;;;;;;;;;25.00;43.30;;;;;;5018764;28;19936;-71
2022/05/08 00:13:40;;;;;;;;;;;25.00;43.30;;;;;;5018982;28;19930;-71
2022/05/08 00:16:09;;;;;;;;;;;25.00;43.30;;;;;;5001293;28;19932;-72
2022/05/08 00:18:36;;;;;;;;;;;25.00;43.30;;;;;;5018792;28;19932;-72
2022/05/08 00:21:05;;;;;;;;;;;25.00;43.30;;;;;;5018932;28;19930;-71
2022/05/08 00:23:32;;;;;;;;;;;25.00;43.40;;;;;;5018932;28;20293;-71
2022/05/08 00:25:59;;;;;;;;;;;25.00;43.30;;;;;;5018496;28;19980;-71
2022/05/08 00:28:26;;;;;;;;;;;24.90;43.30;;;;;;5018540;28;19925;-71
2022/05/08 00:30:53;;;;;;;;;;;24.90;43.30;;;;;;5018521;28;20369;-71
2022/05/08 00:33:20;;;;;;;;;;;24.90;43.30;;;;;;5018736;28;20350;-71
2022/05/08 00:35:47;;;;;;;;;;;24.90;43.40;;;;;;5018767;28;19988;-72
2022/05/08 00:38:14;;;;;;;;;;;24.90;43.50;;;;;;5018421;28;19926;-72
2022/05/08 00:40:41;;;;;;;;;;;24.90;43.40;;;;;;5018237;28;19973;-71
2022/05/08 00:43:26;;;;;;;;;;;24.90;44.00;;;;;;5018735;28;20328;-71
2022/05/08 00:45:54;;;;;;;;;;;24.90;43.50;;;;;;5018449;28;19934;-72
2022/05/08 00:48:21;;;;;;;;;;;24.90;43.50;;;;;;5033783;28;19925;-71
2022/05/08 00:50:49;;;;;;;;;;;24.90;44.10;;;;;;5018077;28;19929;-71
2022/05/08 00:53:16;;;;;;;;;;;24.90;43.50;;;;;;5018325;28;19932;-72
2022/05/08 00:55:44;;;;;;;;;;;24.90;43.50;;;;;;5018577;28;20345;-72
2022/05/08 00:58:11;;;;;;;;;;;24.90;43.50;;;;;;5001160;28;19932;-71
2022/05/08 01:00:38;;;;;;;;;;;24.90;43.60;;;;;;5018206;28;19984;-71
2022/05/08 01:03:05;;;;;;;;;;;24.80;43.50;;;;;;5018037;28;19988;-71
2022/05/08 01:05:32;;;;;;;;;;;24.80;43.50;;;;;;5017754;28;19957;-71
2022/05/08 01:07:59;;;;;;;;;;;24.80;43.50;;;;;;5017623;28;19930;-72
2022/05/08 01:10:26;;;;;;;;;;;24.80;43.50;;;;;;5017823;28;19933;-72
2022/05/08 01:12:53;;;;;;;;;;;24.80;43.50;;;;;;5017768;28;19984;-71
2022/05/08 01:15:21;;;;;;;;;;;24.80;43.50;;;;;;5017769;28;19980;-71
2022/05/08 01:17:49;;;;;;;;;;;24.80;43.50;;;;;;5017772;28;19925;-71
2022/05/08 01:20:16;;;;;;;;;;;24.80;43.50;;;;;;5018049;28;19925;-71
2022/05/08 01:22:43;;;;;;;;;;;24.80;43.60;;;;;;5017658;28;19930;-72
2022/05/08 01:25:10;;;;;;;;;;;24.80;43.60;;;;;;5017561;28;19925;-72
2022/05/08 01:27:37;;;;;;;;;;;24.80;43.60;;;;;;5017945;28;19992;-71
2022/05/08 01:30:05;;;;;;;;;;;24.80;43.60;;;;;;5017674;28;19933;-71
2022/05/08 01:32:32;;;;;;;;;;;24.80;43.60;;;;;;5018027;28;19926;-72
2022/05/08 01:34:59;;;;;;;;;;;24.80;43.60;;;;;;5017536;28;19925;-72
2022/05/08 01:37:26;;;;;;;;;;;24.80;43.60;;;;;;5018472;28;20336;-71
2022/05/08 01:39:55;;;;;;;;;;;24.80;43.60;;;;;;5017531;28;19929;-71
2022/05/08 01:42:23;;;;;;;;;;;24.80;43.60;;;;;;5017326;28;20400;-72
2022/05/08 01:44:51;;;;;;;;;;;24.80;43.60;;;;;;5017740;28;19996;-71
2022/05/08 01:50:05;;;;;;;;;;;24.80;43.60;;;;;;5017731;28;19925;-71
2022/05/08 01:52:32;;;;;;;;;;;24.80;43.60;;;;;;5017495;28;19932;-71
2022/05/08 01:55:00;;;;;;;;;;;24.80;43.60;;;;;;5017783;28;20414;-71
2022/05/08 01:57:27;;;;;;;;;;;24.80;43.60;;;;;;5017442;28;19949;-71
2022/05/08 01:59:54;;;;;;;;;;;24.80;43.50;;;;;;5017372;28;19972;-71
2022/05/08 02:02:21;;;;;;;;;;;24.80;43.50;;;;;;5017359;28;19957;-71
2022/05/08 02:04:48;;;;;;;;;;;24.80;43.60;;;;;;5017497;28;19932;-71
2022/05/08 02:07:15;;;;;;;;;;;24.80;43.50;;;;;;5017519;28;19925;-71
2022/05/08 02:09:44;;;;;;;;;;;24.80;43.60;;;;;;5017180;28;19925;-71
2022/05/08 02:12:11;;;;;;;;;;;24.80;43.60;;;;;;5018947;28;19973;-71
2022/05/08 02:14:38;;;;;;;;;;;24.80;43.60;;;;;;5021253;28;19977;-71
2022/05/08 02:17:05;;;;;;;;;;;24.80;43.60;;;;;;5021384;28;19925;-71
2022/05/08 02:19:32;;;;;;;;;;;24.80;43.60;;;;;;5003562;28;19980;-71
2022/05/08 02:21:59;;;;;;;;;;;24.70;43.60;;;;;;5020924;28;19980;-71
2022/05/08 02:24:26;;;;;;;;;;;24.70;43.60;;;;;;5021165;28;19929;-71
2022/05/08 02:26:53;;;;;;;;;;;24.70;43.60;;;;;;5020687;28;19981;-71
2022/05/08 02:29:21;;;;;;;;;;;24.70;43.60;;;;;;5003836;28;20344;-71
2022/05/08 02:31:48;;;;;;;;;;;24.70;43.60;;;;;;5021106;28;19948;-71
2022/05/08 02:34:15;;;;;;;;;;;24.70;43.60;;;;;;5020883;28;19925;-71
2022/05/08 02:36:42;;;;;;;;;;;24.70;43.60;;;;;;5020862;28;19929;-71
2022/05/08 02:39:09;;;;;;;;;;;24.70;43.60;;;;;;5020560;28;20329;-71
2022/05/08 02:41:36;;;;;;;;;;;24.70;43.60;;;;;;5020392;28;19925;-71
2022/05/08 02:44:04;;;;;;;;;;;24.70;43.60;;;;;;5020514;28;19933;-71
2022/05/08 02:46:32;;;;;;;;;;;24.70;43.60;;;;;;5020341;28;19972;-71
2022/05/08 02:48:59;;;;;;;;;;;24.70;43.60;;;;;;5003138;28;19925;-71
2022/05/08 02:51:26;;;;;;;;;;;24.70;43.60;;;;;;5020342;28;20385;-71
2022/05/08 02:53:53;;;;;;;;;;;24.70;43.60;;;;;;5020363;28;19926;-71
2022/05/08 02:59:07;;;;;;;;;;;24.70;43.60;;;;;;5020731;28;19932;-71
2022/05/08 03:01:34;;;;;;;;;;;24.70;43.60;;;;;;5020321;28;19933;-71
2022/05/08 03:04:01;;;;;;;;;;;24.70;43.60;;;;;;5020305;28;19949;-71
2022/05/08 03:06:28;;;;;;;;;;;24.70;43.60;;;;;;5020407;28;19926;-71
2022/05/08 03:08:55;;;;;;;;;;;24.70;43.60;;;;;;5020307;28;20340;-71
2022/05/08 03:11:25;;;;;;;;;;;24.70;43.60;;;;;;5020067;28;19931;-71
2022/05/08 03:13:56;;;;;;;;;;;24.70;43.60;;;;;;5020163;28;19930;-71
2022/05/08 03:16:23;;;;;;;;;;;24.70;43.60;;;;;;5019836;28;19926;-71
2022/05/08 03:18:51;;;;;;;;;;;24.70;43.60;;;;;;5020309;28;19932;-71
2022/05/08 03:21:18;;;;;;;;;;;24.70;43.60;;;;;;5019959;28;19964;-71
2022/05/08 03:23:45;;;;;;;;;;;24.70;43.60;;;;;;5018757;28;19925;-71
2022/05/08 03:26:14;;;;;;;;;;;24.70;43.60;;;;;;5019825;28;19930;-71
2022/05/08 03:28:41;;;;;;;;;;;24.70;43.60;;;;;;5020006;28;19960;-71
2022/05/08 03:31:09;;;;;;;;;;;24.70;43.60;;;;;;5019634;28;19925;-71
2022/05/08 03:33:37;;;;;;;;;;;24.70;43.50;;;;;;5019911;28;19961;-71
2022/05/08 03:36:05;;;;;;;;;;;24.70;43.50;;;;;;5019906;28;20305;-71
2022/05/08 03:38:33;;;;;;;;;;;24.70;43.50;;;;;;5019716;28;20341;-71
2022/05/08 03:41:02;;;;;;;;;;;24.70;43.50;;;;;;5019572;28;20400;-71
2022/05/08 03:43:29;;;;;;;;;;;24.70;43.50;;;;;;5019680;28;19972;-71
2022/05/08 03:45:57;;;;;;;;;;;24.70;43.50;;;;;;5019325;28;19929;-71
2022/05/08 03:48:24;;;;;;;;;;;24.70;43.50;;;;;;5019745;28;20020;-72
2022/05/08 03:50:51;;;;;;;;;;;24.70;43.50;;;;;;5019219;28;19925;-71
2022/05/08 03:53:18;;;;;;;;;;;24.70;43.50;;;;;;5019627;28;20337;-71
2022/05/08 03:55:45;;;;;;;;;;;24.70;43.50;;;;;;5019161;28;20433;-71
2022/05/08 03:58:12;;;;;;;;;;;24.70;43.50;;;;;;5002154;28;19992;-71
2022/05/08 04:00:39;;;;;;;;;;;24.70;43.50;;;;;;5019342;28;19925;-71
2022/05/08 04:03:06;;;;;;;;;;;24.70;43.40;;;;;;5019419;28;19926;-71
2022/05/08 04:05:33;;;;;;;;;;;24.70;43.50;;;;;;5018936;28;19981;-71
2022/05/08 04:08:00;;;;;;;;;;;24.70;43.40;;;;;;5018932;28;19973;-71
2022/05/08 04:10:27;;;;;;;;;;;24.70;43.40;;;;;;5019021;28;19926;-71
2022/05/08 04:12:54;;;;;;;;;;;24.70;43.40;;;;;;5019078;28;19930;-71
2022/05/08 04:18:09;;;;;;;;;;;24.70;43.40;;;;;;5004608;28;19996;-71
2022/05/08 04:20:36;;;;;;;;;;;24.70;43.90;;;;;;5019056;28;19932;-71
2022/05/08 04:25:54;;;;;;;;;;;24.80;43.30;;;;;;5018876;28;19925;-71
2022/05/08 04:28:21;;;;;;;;;;;24.80;43.30;;;;;;5018613;28;19925;-71
2022/05/08 04:30:48;;;;;;;;;;;24.80;43.30;;;;;;5018864;28;20270;-71
2022/05/08 04:33:20;;;;;;;;;;;24.80;43.30;;;;;;5002166;28;19925;-71
2022/05/08 04:35:47;;;;;;;;;;;24.80;43.30;;;;;;5018172;28;20360;-72
2022/05/08 04:38:15;;;;;;;;;;;24.90;43.30;;;;;;5018914;28;20286;-72
2022/05/08 04:40:42;;;;;;;;;;;24.80;43.20;;;;;;5018408;28;20020;-71
2022/05/08 04:43:09;;;;;;;;;;;24.80;43.20;;;;;;5018313;28;20374;-72
2022/05/08 04:45:37;;;;;;;;;;;24.90;43.20;;;;;;5018422;28;19931;-71
2022/05/08 04:48:05;;;;;;;;;;;24.90;43.10;;;;;;5018288;28;19930;-72
2022/05/08 04:50:32;;;;;;;;;;;24.90;43.10;;;;;;5018494;28;19925;-71
2022/05/08 04:52:59;;;;;;;;;;;24.90;43.10;;;;;;5018340;28;20304;-71
2022/05/08 04:55:26;;;;;;;;;;;24.90;43.00;;;;;;5018338;28;20344;-71
2022/05/08 04:57:53;;;;;;;;;;;24.90;43.00;;;;;;5018477;28;19946;-71
2022/05/08 05:00:21;;;;;;;;;;;25.00;43.00;;;;;;5018362;28;19996;-71
2022/05/08 05:02:48;;;;;;;;;;;24.90;42.90;;;;;;5018255;28;20293;-71
2022/05/08 05:05:16;;;;;;;;;;;25.00;42.90;;;;;;5017996;28;19980;-71
2022/05/08 05:07:43;;;;;;;;;;;25.00;42.90;;;;;;5018264;28;19925;-71
2022/05/08 05:10:11;;;;;;;;;;;25.00;42.70;;;;;;5018088;28;19930;-71
2022/05/08 05:12:38;;;;;;;;;;;25.00;42.50;;;;;;5000753;28;19930;-72
2022/05/08 05:15:06;;;;;;;;;;;25.10;42.50;;;;;;5018148;28;19926;-71
2022/05/08 05:17:33;;;;;;;;;;;25.10;42.40;;;;;;5017696;28;19926;-71
2022/05/08 05:20:00;;;;;;;;;;;25.10;42.30;;;;;;5017962;28;19926;-71
2022/05/08 05:22:28;;;;;;;;;;;25.10;42.20;;;;;;5017966;28;19925;-71
2022/05/08 05:24:56;;;;;;;;;;;25.10;42.20;;;;;;5017756;28;19926;-71
2022/05/08 05:27:24;;;;;;;;;;;25.10;42.10;;;;;;5017797;28;19929;-71
2022/05/08 05:29:51;;;;;;;;;;;25.10;42.10;;;;;;5000521;28;19926;-71
2022/05/08 05:32:18;;;;;;;;;;;25.10;42.00;;;;;;5017517;28;19932;-71
2022/05/08 05:34:45;;;;;;;;;;;25.10;42.00;;;;;;5017633;28;19936;-71
2022/05/08 05:37:12;;;;;;;;;;;25.10;41.90;;;;;;5017796;28;19925;-72
2022/05/08 05:39:39;;;;;;;;;;;25.10;41.90;;;;;;5017621;28;19925;-71
2022/05/08 05:42:08;;;;;;;;;;;25.10;41.80;;;;;;5017668;28;20266;-72
2022/05/08 05:44:35;;;;;;;;;;;25.10;41.80;;;;;;5017600;28;19929;-71
2022/05/08 05:49:49;;;;;;;;;;;25.10;41.70;;;;;;5017513;28;19980;-71
2022/05/08 05:52:16;;;;;;;;;;;25.10;41.60;;;;;;5017228;28;19926;-71
2022/05/08 05:54:43;;;;;;;;;;;25.10;41.50;;;;;;5017705;28;19925;-71
2022/05/08 05:57:10;;;;;;;;;;;25.20;41.50;;;;;;5017637;28;19926;-72
2022/05/08 05:59:37;;;;;;;;;;;25.20;41.40;;;;;;5017367;28;19925;-71
2022/05/08 06:02:06;;;;;;;;;;;25.20;41.30;;;;;;5017369;28;19925;-71
2022/05/08 06:04:34;;;;;;;;;;;25.20;41.20;;;;;;5017378;28;19929;-71
2022/05/08 06:07:01;;;;;;;;;;;25.30;41.20;;;;;;5017251;28;19932;-71
2022/05/08 06:09:28;;;;;;;;;;;25.30;41.10;;;;;;5017857;28;20329;-71
2022/05/08 06:11:55;;;;;;;;;;;25.30;41.00;;;;;;5017406;28;20341;-71
2022/05/08 06:14:22;;;;;;;;;;;25.30;41.00;;;;;;5000098;28;19940;-71
2022/05/08 06:16:49;;;;;;;;;;;25.30;41.10;;;;;;5017176;28;19972;-71
2022/05/08 06:19:16;;;;;;;;;;;25.30;41.10;;;;;;5017123;28;19925;-71
2022/05/08 06:21:49;;;;;;;;;;;25.40;41.10;;;;;;5017395;28;19949;-71
2022/05/08 06:24:17;;;;;;;;;;;25.40;41.10;;;;;;4999665;28;20400;-71
2022/05/08 06:26:44;;;;;;;;;;;25.40;41.10;;;;;;5017138;28;20341;-71
2022/05/08 06:29:11;;;;;;;;;;;25.30;41.10;;;;;;5016854;28;19942;-71
2022/05/08 06:31:38;;;;;;;;;;;25.40;41.10;;;;;;5017267;28;20278;-71
2022/05/08 06:34:06;;;;;;;;;;;25.40;41.10;;;;;;5016989;28;20397;-71
2022/05/08 06:36:33;;;;;;;;;;;25.40;41.00;;;;;;5017180;28;19926;-72
2022/05/08 06:39:01;;;;;;;;;;;25.40;41.00;;;;;;5017171;28;20273;-71
2022/05/08 06:41:28;;;;;;;;;;;25.40;40.90;;;;;;5016778;28;19926;-71
2022/05/08 06:43:55;;;;;;;;;;;25.40;40.70;;;;;;5017302;28;19929;-71
2022/05/08 06:46:22;;;;;;;;;;;25.40;40.70;;;;;;5016741;28;20393;-71
2022/05/08 06:48:49;;;;;;;;;;;25.50;40.60;;;;;;5017085;28;20028;-71
2022/05/08 06:51:16;;;;;;;;;;;25.50;40.60;;;;;;4999653;28;19980;-72
2022/05/08 06:53:44;;;;;;;;;;;25.60;40.50;;;;;;5016770;28;19929;-71
2022/05/08 06:56:15;;;;;;;;;;;25.60;40.50;;;;;;5016731;28;19932;-71
2022/05/08 07:01:36;;;;;;;;;;;25.60;40.40;;;;;;5020431;28;19980;-71
2022/05/08 07:04:04;;;;;;;;;;;25.60;40.30;;;;;;5020713;28;19929;-72
2022/05/08 07:06:31;;;;;;;;;;;25.60;40.30;;;;;;5020109;28;19976;-71
2022/05/08 07:09:08;;;;;;;;;;;25.60;40.20;;;;;;5020599;28;19930;-71
2022/05/08 07:11:37;;;;;;;;;;;25.60;40.20;;;;;;5020063;28;19960;-72
2022/05/08 07:14:04;;;;;;;;;;;25.70;40.30;;;;;;5020458;28;19980;-71
2022/05/08 07:16:31;;;;;;;;;;;25.70;40.20;;;;;;5020166;28;19925;-71
2022/05/08 07:18:58;;;;;;;;;;;25.70;40.10;;;;;;5020207;28;20317;-72
2022/05/08 07:21:25;;;;;;;;;;;25.70;40.10;;;;;;5019859;28;19980;-71
2022/05/08 07:23:52;;;;;;;;;;;25.70;40.10;;;;;;5019775;28;19929;-71
2022/05/08 07:26:19;;;;;;;;;;;25.70;40.00;;;;;;5020118;28;19926;-71
2022/05/08 07:28:46;;;;;;;;;;;25.70;40.00;;;;;;5019708;28;19930;-72
2022/05/08 07:31:13;;;;;;;;;;;25.70;39.90;;;;;;5019900;28;20263;-71
2022/05/08 07:33:40;;;;;;;;;;;25.70;39.90;;;;;;5019887;28;20344;-72
2022/05/08 07:36:13;;;;;;;;;;;25.80;39.90;;;;;;5019633;28;20340;-71
2022/05/08 07:38:45;;;;;;;;;;;25.80;39.80;;;;;;5019684;28;19929;-72
2022/05/08 07:41:14;;;;;;;;;;;25.90;39.80;;;;;;5019650;28;20271;-72
2022/05/08 07:43:45;;;;;;;;;;;25.90;39.70;;;;;;5019304;28;19929;-72
2022/05/08 07:46:13;;;;;;;;;;;25.90;39.60;;;;;;5019232;28;20371;-72
2022/05/08 07:48:40;;;;;;;;;;;25.90;39.60;;;;;;5019937;28;19979;-71
2022/05/08 07:51:07;;;;;;;;;;;26.00;39.60;;;;;;5020062;28;19929;-72
2022/05/08 07:53:34;;;;;;;;;;;26.00;39.50;;;;;;5019642;28;19933;-71
2022/05/08 07:56:01;;;;;;;;;;;26.00;39.40;;;;;;5019356;28;19925;-72
2022/05/08 07:58:29;;;;;;;;;;;26.00;39.30;;;;;;5019575;28;19980;-72
2022/05/08 08:01:00;;;;;;;;;;;26.10;39.30;;;;;;5019339;28;19929;-71
2022/05/08 08:03:29;;;;;;;;;;;26.10;39.20;;;;;;5019158;28;20008;-71
2022/05/08 08:05:56;;;;;;;;;;;26.10;39.20;;;;;;5019160;28;19925;-71
2022/05/08 08:08:39;;;;;;;;;;;26.10;39.20;;;;;;5019252;28;20309;-72
2022/05/08 08:11:07;;;;;;;;;;;26.10;39.10;;;;;;5018242;28;20386;-72
2022/05/08 08:13:35;;;;;;;;;;;26.20;39.10;;;;;;5019233;28;19996;-71
2022/05/08 08:16:02;;;;;;;;;;;26.20;39.10;;;;;;5018789;28;20374;-72
2022/05/08 08:18:30;;;;;;;;;;;26.20;39.00;;;;;;5019272;28;19926;-72
2022/05/08 08:20:57;;;;;;;;;;;26.20;38.90;;;;;;5018969;28;19929;-71
2022/05/08 08:23:26;;;;;;;;;;;26.20;38.80;;;;;;5018880;28;19925;-72
2022/05/08 08:25:53;;;;;;;;;;;26.20;38.70;;;;;;5018634;28;19933;-72
2022/05/08 08:28:21;;;;;;;;;;;26.30;38.70;;;;;;5018968;28;19972;-72
2022/05/08 08:30:50;;;;;;;;;;;26.30;39.20;;;;;;5018349;28;20214;-72
2022/05/08 08:33:17;;;;;;;;;;;26.30;38.50;;;;;;5018963;28;19933;-72
2022/05/08 08:35:44;;;;;;;;;;;26.30;38.50;;;;;;5011030;28;19926;-72
2022/05/08 08:38:11;;;;;;;;;;;26.40;38.50;;;;;;5018472;28;20440;-72
2022/05/08 08:40:41;;;;;;;;;;;26.30;38.30;;;;;;5018541;28;22115;-71
2022/05/08 08:43:09;;;;;;;;;;;26.30;38.30;;;;;;5018357;28;19925;-72
2022/05/08 08:48:27;;;;;;;;;;;26.30;38.20;;;;;;5018280;28;19925;-72
2022/05/08 08:50:55;;;;;;;;;;;26.30;38.20;;;;;;5018351;28;20485;-71
2022/05/08 08:53:23;;;;;;;;;;;26.30;38.20;;;;;;5018112;28;20362;-71
2022/05/08 08:55:50;;;;;;;;;;;26.30;38.10;;;;;;5018219;28;19925;-71
2022/05/08 08:58:18;;;;;;;;;;;26.30;38.20;;;;;;5018111;28;19957;-71
2022/05/08 09:00:46;;;;;;;;;;;26.30;38.20;;;;;;5018176;28;20381;-72
2022/05/08 09:03:29;;;;;;;;;;;26.30;38.20;;;;;;5018229;28;19926;-71
2022/05/08 09:05:57;;;;;;;;;;;26.30;38.10;;;;;;5018225;28;19930;-71
2022/05/08 09:08:25;;;;;;;;;;;26.30;38.10;;;;;;5018202;28;19995;-71
2022/05/08 09:10:53;;;;;;;;;;;26.30;38.20;;;;;;5017930;28;19925;-72
2022/05/08 09:13:23;;;;;;;;;;;26.30;38.20;;;;;;5018191;28;19930;-72
2022/05/08 09:15:50;;;;;;;;;;;26.30;38.20;;;;;;5017911;28;19926;-71
2022/05/08 09:18:17;;;;;;;;;;;26.30;38.10;;;;;;5017843;28;20427;-72
2022/05/08 09:20:51;;;;;;;;;;;26.40;38.10;;;;;;5017616;28;19979;-71
2022/05/08 09:23:19;;;;;;;;;;;26.40;38.10;;;;;;5017496;28;19932;-72
2022/05/08 09:25:51;;;;;;;;;;;26.40;38.60;;;;;;5017604;28;19932;-72
2022/05/08 09:28:44;;;;;;;;;;;26.40;38.00;;;;;;5017736;28;19998;-71
2022/05/08 09:31:15;;;;;;;;;;;26.40;38.00;;;;;;5017810;28;20289;-71
2022/05/08 09:33:47;;;;;;;;;;;26.50;38.00;;;;;;5017823;28;20001;-71
2022/05/08 09:36:21;;;;;;;;;;;26.50;38.00;;;;;;5017518;28;19925;-71
2022/05/08 09:38:50;;;;;;;;;;;26.50;37.90;;;;;;5017180;28;20439;-71
2022/05/08 09:41:18;;;;;;;;;;;26.50;37.80;;;;;;5017535;28;19930;-71
2022/05/08 09:43:45;;;;;;;;;;;26.60;37.80;;;;;;5017989;28;19952;-72
2022/05/08 09:46:12;;;;;;;;;;;26.60;37.60;;;;;;5017420;28;20382;-71
2022/05/08 09:48:39;;;;;;;;;;;26.70;37.60;;;;;;5017546;28;19980;-71
2022/05/08 09:51:07;;;;;;;;;;;26.70;37.50;;;;;;5017270;28;20370;-71
2022/05/08 09:53:36;;;;;;;;;;;26.70;37.40;;;;;;5017688;28;19926;-71
2022/05/08 09:56:04;;;;;;;;;;;26.70;37.40;;;;;;5017418;28;20325;-71
2022/05/08 09:58:32;;;;;;;;;;;26.70;37.30;;;;;;5017449;28;19925;-71
2022/05/08 10:00:59;;;;;;;;;;;26.80;37.30;;;;;;5017148;28;19980;-71
2022/05/08 10:03:27;;;;;;;;;;;26.70;37.20;;;;;;5017687;28;19925;-71
2022/05/08 10:06:00;;;;;;;;;;;26.70;37.10;;;;;;5017407;28;19949;-71
2022/05/08 10:08:29;;;;;;;;;;;26.80;37.20;;;;;;5018239;28;19926;-71
2022/05/08 10:13:56;;;;;;;;;;;26.80;37.00;;;;;;5017786;28;19985;-71
2022/05/08 10:16:44;;;;;;;;;;;26.80;36.90;;;;;;5017074;28;20345;-72
2022/05/08 10:19:31;;;;;;;;;;;26.80;36.80;;;;;;5017116;28;19957;-71
2022/05/08 10:22:06;;;;;;;;;;;26.90;36.80;;;;;;5017236;28;19930;-71
2022/05/08 10:24:35;;;;;;;;;;;26.90;36.80;;;;;;5017191;28;20408;-72
2022/05/08 10:27:16;;;;;;;;;;;26.90;36.60;;;;;;4999981;28;19996;-71
2022/05/08 10:30:03;;;;;;;;;;;27.00;36.60;;;;;;5016979;28;19925;-71
2022/05/08 10:32:50;;;;;;;;;;;27.00;36.50;;;;;;5003444;28;19932;-71
2022/05/08 10:35:20;;;;;;;;;;;27.00;36.40;;;;;;5006603;28;19930;-71
2022/05/08 10:37:49;;;;;;;;;;;27.00;36.40;;;;;;5021043;28;19926;-71
2022/05/08 10:40:35;;;;;;;;;;;27.00;36.30;;;;;;5020676;28;19934;-71
2022/05/08 10:43:25;;;;;;;;;;;27.00;36.20;;;;;;5020566;28;19925;-71
2022/05/08 10:45:52;;;;;;;;;;;27.00;36.20;;;;;;5020566;28;19925;-71
2022/05/08 10:48:20;;;;;;;;;;;27.00;36.10;;;;;;5003476;28;20292;-71
2022/05/08 10:50:48;;;;;;;;;;;27.10;36.10;;;;;;5020460;28;19929;-71
2022/05/08 10:53:23;;;;;;;;;;;27.10;36.10;;;;;;5020423;28;20333;-72
2022/05/08 10:55:50;;;;;;;;;;;27.10;36.00;;;;;;5020379;28;19930;-71
2022/05/08 10:58:17;;;;;;;;;;;27.10;35.90;;;;;;5003308;28;19930;-71
2022/05/08 11:00:44;;;;;;;;;;;27.10;35.90;;;;;;5002959;28;19925;-71
2022/05/08 11:03:19;;;;;;;;;;;27.10;35.80;;;;;;5003053;28;19926;-71
2022/05/08 11:05:46;;;;;;;;;;;27.10;35.80;;;;;;5020370;28;19937;-72
2022/05/08 11:08:20;;;;;;;;;;;27.10;35.70;;;;;;5020120;28;19925;-71
2022/05/08 11:10:55;;;;;;;;;;;27.20;35.70;;;;;;5020283;28;19926;-72
2022/05/08 11:13:22;;;;;;;;;;;27.20;35.70;;;;;;5019948;28;19973;-72
2022/05/08 11:15:50;;;;;;;;;;;27.20;35.60;;;;;;5019756;28;19925;-71
2022/05/08 11:18:18;;;;;;;;;;;27.20;35.60;;;;;;5020110;28;20274;-72
2022/05/08 11:20:46;;;;;;;;;;;27.20;35.50;;;;;;5020124;28;20366;-71
2022/05/08 11:23:14;;;;;;;;;;;27.20;35.60;;;;;;5020216;28;20333;-71
2022/05/08 11:25:44;;;;;;;;;;;27.20;35.60;;;;;;5019890;28;19929;-72
2022/05/08 11:28:13;;;;;;;;;;;27.10;35.50;;;;;;5020024;28;19926;-72
2022/05/08 11:30:48;;;;;;;;;;;27.20;35.60;;;;;;5019654;28;20012;-72
2022/05/08 11:36:06;;;;;;;;;;;27.20;35.50;;;;;;5019800;28;19925;-72
2022/05/08 11:38:41;;;;;;;;;;;27.20;35.50;;;;;;5019540;28;19932;-71
2022/05/08 11:41:09;;;;;;;;;;;27.20;35.50;;;;;;5019499;28;20468;-72
2022/05/08 11:43:40;;;;;;;;;;;27.20;35.50;;;;;;5019379;28;20374;-72
2022/05/08 11:46:08;;;;;;;;;;;27.20;35.40;;;;;;5019476;28;19925;-72
2022/05/08 11:48:37;;;;;;;;;;;27.20;35.50;;;;;;5019352;28;20377;-71
2022/05/08 11:51:05;;;;;;;;;;;27.20;35.40;;;;;;5019178;28;19949;-72
2022/05/08 11:53:42;;;;;;;;;;;27.20;35.40;;;;;;5020213;28;20270;-72
2022/05/08 11:56:24;;;;;;;;;;;27.20;35.40;;;;;;5019198;28;19926;-71
2022/05/08 11:58:51;;;;;;;;;;;27.20;35.30;;;;;;5019554;28;19926;-71
2022/05/08 12:01:33;;;;;;;;;;;27.20;35.30;;;;;;5019059;28;20403;-71
2022/05/08 12:04:20;;;;;;;;;;;27.20;35.30;;;;;;5019376;28;19926;-71
2022/05/08 12:06:56;;;;;;;;;;;27.10;35.30;;;;;;5019130;28;19933;-72
2022/05/08 12:09:23;;;;;;;;;;;27.10;35.20;;;;;;5018949;28;19926;-72
2022/05/08 12:11:50;;;;;;;;;;;27.10;35.30;;;;;;5019268;28;20332;-72
2022/05/08 12:14:28;;;;;;;;;;;27.10;35.30;;;;;;5019301;28;19925;-72
2022/05/08 12:17:00;;;;;;;;;;;27.10;35.30;;;;;;5019298;28;19933;-72
2022/05/08 12:19:27;;;;;;;;;;;27.10;35.30;;;;;;5018831;28;19925;-71
2022/05/08 12:21:54;;;;;;;;;;;27.00;35.30;;;;;;5019179;28;19926;-72
2022/05/08 12:24:22;;;;;;;;;;;27.00;35.30;;;;;;5018820;28;19926;-71
2022/05/08 12:26:50;;;;;;;;;;;27.00;35.30;;;;;;5018849;28;19929;-72
2022/05/08 12:29:19;;;;;;;;;;;27.00;35.30;;;;;;5018777;28;19925;-71
2022/05/08 12:31:46;;;;;;;;;;;27.00;35.30;;;;;;5018626;28;20432;-72
2022/05/08 12:34:13;;;;;;;;;;;27.00;35.30;;;;;;5018758;28;19925;-71
2022/05/08 12:36:41;;;;;;;;;;;27.00;35.30;;;;;;5018363;28;19933;-72
2022/05/08 12:39:09;;;;;;;;;;;27.00;35.20;;;;;;5018563;28;19956;-72
2022/05/08 12:41:37;;;;;;;;;;;27.10;35.30;;;;;;5018376;28;19929;-72
2022/05/08 12:44:04;;;;;;;;;;;27.10;35.20;;;;;;5018543;28;19925;-71
2022/05/08 12:46:32;;;;;;;;;;;27.10;35.10;;;;;;5018264;28;19925;-72
2022/05/08 12:49:02;;;;;;;;;;;27.10;35.10;;;;;;5018363;28;19976;-72
2022/05/08 12:51:30;;;;;;;;;;;27.20;35.00;;;;;;5018359;28;19926;-72
2022/05/08 12:53:58;;;;;;;;;;;27.20;35.00;;;;;;5018291;28;20404;-72
2022/05/08 12:56:25;;;;;;;;;;;27.30;35.00;;;;;;5018082;28;19952;-72
2022/05/08 13:01:39;;;;;;;;;;;27.30;34.80;;;;;;5003567;28;19929;-71
2022/05/08 13:04:06;;;;;;;;;;;27.40;34.80;;;;;;5000875;28;19969;-72
2022/05/08 13:06:34;;;;;;;;;;;27.40;34.70;;;;;;5018712;28;19929;-72
2022/05/08 13:09:02;;;;;;;;;;;27.40;34.60;;;;;;5017989;28;20362;-72
2022/05/08 13:11:29;;;;;;;;;;;27.50;34.70;;;;;;5032811;28;19980;-72
2022/05/08 13:13:57;;;;;;;;;;;27.50;34.60;;;;;;5018023;28;19925;-72
2022/05/08 13:16:24;;;;;;;;;;;27.50;34.50;;;;;;5018309;28;19996;-72
2022/05/08 13:18:57;;;;;;;;;;;27.50;34.40;;;;;;5017826;28;19925;-72
2022/05/08 13:21:25;;;;;;;;;;;27.60;34.50;;;;;;5018093;28;19926;-72
2022/05/08 13:23:52;;;;;;;;;;;27.60;34.40;;;;;;5000433;28;19933;-71
2022/05/08 13:26:20;;;;;;;;;;;27.60;34.30;;;;;;5017677;28;19932;-72
2022/05/08 13:28:47;;;;;;;;;;;27.60;34.20;;;;;;5017622;28;20445;-72
2022/05/08 13:31:14;;;;;;;;;;;27.70;34.30;;;;;;5017619;28;19980;-72
2022/05/08 13:33:41;;;;;;;;;;;27.60;34.10;;;;;;5017540;28;19927;-72
2022/05/08 13:36:08;;;;;;;;;;;27.70;34.20;;;;;;5017420;28;20425;-72
2022/05/08 13:38:36;;;;;;;;;;;27.70;34.10;;;;;;5017426;28;19929;-72
2022/05/08 13:41:03;;;;;;;;;;;27.70;34.10;;;;;;5017461;28;20374;-72
2022/05/08 13:43:30;;;;;;;;;;;27.80;34.10;;;;;;5017880;28;19930;-72
2022/05/08 13:45:58;;;;;;;;;;;27.70;34.00;;;;;;5017515;28;19932;-72
2022/05/08 13:48:25;;;;;;;;;;;27.70;34.00;;;;;;5017742;28;20028;-71
2022/05/08 13:50:52;;;;;;;;;;;27.70;34.00;;;;;;5017501;28;20325;-72
2022/05/08 13:53:20;;;;;;;;;;;27.80;34.00;;;;;;5017700;28;19925;-72
2022/05/08 13:55:49;;;;;;;;;;;27.80;34.00;;;;;;5017799;28;20353;-72
2022/05/08 13:58:16;;;;;;;;;;;27.70;33.80;;;;;;5017370;28;20436;-72
2022/05/08 14:00:50;;;;;;;;;;;27.70;33.80;;;;;;5017198;28;19930;-72
2022/05/08 14:03:19;;;;;;;;;;;27.70;33.70;;;;;;5017616;28;19925;-72
2022/05/08 14:05:47;;;;;;;;;;;27.70;33.70;;;;;;5017575;28;19932;-72
2022/05/08 14:08:15;;;;;;;;;;;27.70;33.80;;;;;;5019036;28;19925;-72
2022/05/08 14:10:43;;;;;;;;;;;27.70;33.80;;;;;;5021248;28;19929;-71
2022/05/08 14:13:10;;;;;;;;;;;27.70;33.80;;;;;;5021443;28;19929;-72
2022/05/08 14:15:38;;;;;;;;;;;27.70;33.80;;;;;;5021348;28;19972;-71
2022/05/08 14:18:06;;;;;;;;;;;27.70;33.80;;;;;;5021283;28;19929;-72
2022/05/08 14:20:33;;;;;;;;;;;27.70;33.80;;;;;;5021149;28;19980;-72
2022/05/08 14:23:00;;;;;;;;;;;27.70;33.80;;;;;;5021099;28;19926;-72
2022/05/08 14:25:27;;;;;;;;;;;27.70;33.80;;;;;;5021072;28;19925;-71
2022/05/08 14:27:54;;;;;;;;;;;27.70;33.80;;;;;;5021051;28;20262;-72
2022/05/08 14:30:21;;;;;;;;;;;27.70;33.80;;;;;;5020874;28;19926;-72
2022/05/08 14:38:22;;;;;;;;;;;27.70;33.90;;;;;;5020860;28;19973;-71
2022/05/08 14:40:55;;;;;;;;;;;27.70;33.90;;;;;;5020768;28;20381;-71
2022/05/08 14:43:22;;;;;;;;;;;27.70;33.90;;;;;;5020585;28;20377;-72
2022/05/08 14:45:49;;;;;;;;;;;27.70;33.90;;;;;;5020614;28;19930;-71
2022/05/08 14:48:17;;;;;;;;;;;27.80;33.90;;;;;;5020652;28;19925;-72
2022/05/08 14:50:44;;;;;;;;;;;27.70;33.80;;;;;;5020818;28;19948;-72
2022/05/08 14:53:13;;;;;;;;;;;27.70;33.90;;;;;;5020423;28;19925;-72
2022/05/08 14:55:41;;;;;;;;;;;27.70;33.90;;;;;;5020384;28;19926;-72
2022/05/08 14:58:11;;;;;;;;;;;27.70;33.90;;;;;;5020933;28;19929;-72